createdAt,value
2019-03-04T00:06:52.119Z,91.59
2019-03-04T00:13:32.308Z,91.50
2019-03-04T00:19:58.444Z,91.54
2019-03-04T00:25:51.744Z,90.76
2019-03-04T00:32:17.464Z,90.94
2019-03-04T00:38:56.714Z,90.70
2019-03-04T00:45:33.641Z,91.13
2019-03-04T00:52:01.484Z,93.87
2019-03-04T00:58:29.976Z,95.53
2019-03-04T01:08:45.208Z,97.67
2019-03-04T01:15:29.081Z,98.46
2019-03-04T01:21:55.241Z,98.75
2019-03-04T01:28:23.086Z,99.43
2019-03-04T01:34:55.974Z,100.00
2019-03-04T01:41:36.942Z,100.00
2019-03-04T01:48:02.765Z,100.00
2019-03-04T01:54:28.348Z,100.00
2019-03-04T02:01:05.510Z,100.00
2019-03-04T02:10:55.354Z,100.00
2019-03-04T02:17:20.937Z,100.00
2019-03-04T02:23:50.885Z,100.00
2019-03-04T02:30:23.702Z,100.00
2019-03-04T02:37:00.617Z,100.00
2019-03-04T02:43:28.095Z,100.00
2019-03-04T02:49:53.504Z,100.00
2019-03-04T02:56:29.217Z,100.00
2019-03-04T03:02:55.885Z,100.00
2019-03-04T03:12:58.013Z,100.00
2019-03-04T03:19:24.677Z,100.00
2019-03-04T03:25:17.533Z,100.00
2019-03-04T03:31:54.261Z,100.00
2019-03-04T03:38:21.747Z,100.00
2019-03-04T03:44:47.112Z,100.00
2019-03-04T03:51:24.914Z,100.00
2019-03-04T03:57:55.924Z,100.00
2019-03-04T04:04:21.529Z,100.00
2019-03-04T04:14:24.473Z,100.00
2019-03-04T04:20:50.323Z,100.00
2019-03-04T04:26:55.142Z,100.00
2019-03-04T04:33:22.773Z,100.00
2019-03-04T04:39:50.667Z,100.00
2019-03-04T04:46:15.634Z,100.00
2019-03-04T04:52:56.309Z,100.00
2019-03-04T04:59:27.479Z,100.00
2019-03-04T05:05:59.051Z,100.00
2019-03-04T05:16:15.099Z,100.00
2019-03-04T05:22:54.401Z,100.00
2019-03-04T05:29:20.219Z,100.00
2019-03-04T05:35:48.063Z,100.00
2019-03-04T05:42:24.996Z,100.00
2019-03-04T05:48:50.565Z,100.00
2019-03-04T05:55:19.286Z,100.00
2019-03-04T06:01:51.541Z,100.00
2019-03-04T06:08:28.472Z,100.00
2019-03-04T06:18:30.370Z,100.00
2019-03-04T06:24:57.265Z,100.00
2019-03-04T06:31:22.828Z,100.00
2019-03-04T06:38:00.012Z,100.00
2019-03-04T06:44:25.846Z,100.00
2019-03-04T06:51:01.676Z,100.00
2019-03-04T06:57:45.552Z,99.17
2019-03-04T07:04:23.275Z,95.33
2019-03-04T07:10:51.179Z,94.60
2019-03-04T07:21:06.624Z,94.06
2019-03-04T07:26:56.081Z,92.24
2019-03-04T07:33:35.032Z,89.52
2019-03-04T07:40:00.604Z,87.60
2019-03-04T07:46:27.278Z,88.36
2019-03-04T07:53:01.593Z,87.15
2019-03-04T07:56:35.698Z,89.82
2019-03-04T08:03:02.533Z,92.37
2019-03-04T08:10:13.529Z,88.26
2019-03-04T08:16:52.757Z,85.41
2019-03-04T08:19:49.509Z,83.45
2019-03-04T08:25:37.952Z,81.36
2019-03-04T08:32:03.793Z,78.85
2019-03-04T08:38:40.706Z,77.69
2019-03-04T08:47:41.848Z,78.86
2019-03-04T08:50:14.334Z,82.54
2019-03-04T08:52:44.916Z,84.17
2019-03-04T08:55:18.766Z,86.19
2019-03-04T08:57:49.263Z,87.04
2019-03-04T09:00:27.587Z,86.50
2019-03-04T09:02:58.311Z,87.20
2019-03-04T09:05:30.167Z,86.53
2019-03-04T09:08:00.785Z,86.09
2019-03-04T09:10:31.962Z,84.81
2019-03-04T09:13:02.644Z,84.13
2019-03-04T09:15:33.408Z,83.43
2019-03-04T09:18:07.459Z,83.25
2019-03-04T09:20:38.008Z,83.23
2019-03-04T09:23:08.559Z,81.64
2019-03-04T09:25:49.697Z,83.29
2019-03-04T09:28:20.305Z,82.28
2019-03-04T09:30:53.883Z,80.39
2019-03-04T09:33:24.482Z,80.13
2019-03-04T09:35:55.011Z,79.98
2019-03-04T09:38:25.614Z,79.08
2019-03-04T09:40:56.165Z,78.88
2019-03-04T09:43:28.001Z,78.19
2019-03-04T09:45:58.635Z,78.19
2019-03-04T09:48:29.177Z,77.31
2019-03-04T09:50:59.777Z,79.32
2019-03-04T09:53:39.112Z,79.52
2019-03-04T09:56:02.648Z,79.32
2019-03-04T09:58:33.205Z,79.85
2019-03-04T10:01:32.072Z,81.34
2019-03-04T10:05:00.294Z,82.87
2019-03-04T10:08:32.811Z,84.75
2019-03-04T10:11:47.639Z,87.11
2019-03-04T10:15:12.343Z,88.99
2019-03-04T10:17:56.155Z,90.69
2019-03-04T10:21:14.231Z,91.28
2019-03-04T10:24:42.499Z,92.40
2019-03-04T10:28:07.537Z,92.03
2019-03-04T10:31:32.569Z,92.11
2019-03-04T10:34:33.926Z,92.87
2019-03-04T10:37:43.263Z,93.26
2019-03-04T10:41:15.197Z,93.69
2019-03-04T10:45:08.400Z,92.82
2019-03-04T10:47:38.978Z,92.78
2019-03-04T10:50:10.551Z,92.73
2019-03-04T10:52:41.149Z,91.98
2019-03-04T10:55:12.493Z,90.74
2019-03-04T10:57:45.171Z,90.54
2019-03-04T11:00:18.718Z,91.58
2019-03-04T11:02:49.330Z,91.01
2019-03-04T11:05:20.915Z,90.98
2019-03-04T11:07:51.514Z,90.71
2019-03-04T11:10:25.255Z,86.60
2019-03-04T11:12:55.823Z,85.48
2019-03-04T11:15:26.681Z,84.16
2019-03-04T11:17:57.235Z,85.46
2019-03-04T11:20:27.785Z,83.70
2019-03-04T11:22:58.374Z,85.18
2019-03-04T11:25:29.025Z,86.35
2019-03-04T11:28:01.953Z,86.51
2019-03-04T11:30:32.944Z,88.47
2019-03-04T11:33:03.526Z,88.09
2019-03-04T11:35:37.182Z,88.96
2019-03-04T11:38:28.475Z,88.11
2019-03-04T11:41:00.232Z,88.22
2019-03-04T11:43:31.855Z,88.22
2019-03-04T11:46:02.414Z,87.39
2019-03-04T11:48:32.955Z,86.85
2019-03-04T11:51:03.587Z,85.30
2019-03-04T11:53:34.156Z,87.23
2019-03-04T11:56:04.858Z,87.12
2019-03-04T11:58:36.689Z,87.12
2019-03-04T12:01:14.218Z,84.96
2019-03-04T12:03:44.796Z,86.14
2019-03-04T12:06:15.388Z,85.61
2019-03-04T12:08:45.967Z,85.66
2019-03-04T12:11:16.517Z,86.01
2019-03-04T12:13:47.070Z,88.74
2019-03-04T12:16:17.657Z,90.34
2019-03-04T12:18:49.545Z,92.05
2019-03-04T12:21:20.202Z,93.74
2019-03-04T12:23:50.754Z,92.40
2019-03-04T12:26:21.381Z,93.73
2019-03-04T12:28:52.024Z,94.90
2019-03-04T12:31:29.533Z,96.15
2019-03-04T12:34:00.072Z,96.41
2019-03-04T12:36:30.627Z,94.68
2019-03-04T12:39:01.157Z,96.35
2019-03-04T12:41:31.748Z,95.54
2019-03-04T12:44:02.278Z,93.93
2019-03-04T12:46:32.849Z,94.15
2019-03-04T12:49:03.370Z,94.09
2019-03-04T12:51:33.979Z,92.90
2019-03-04T12:54:04.577Z,92.40
2019-03-04T12:56:35.178Z,92.40
2019-03-04T12:59:05.791Z,93.97
2019-03-04T13:01:36.380Z,94.36
2019-03-04T13:04:06.955Z,95.20
2019-03-04T13:06:37.551Z,96.42
2019-03-04T13:09:14.524Z,96.70
2019-03-04T13:11:42.056Z,97.60
2019-03-04T13:14:12.609Z,98.78
2019-03-04T13:16:43.168Z,99.03
2019-03-04T13:19:13.743Z,99.12
2019-03-04T13:21:44.408Z,98.84
2019-03-04T13:24:15.018Z,97.94
2019-03-04T13:26:45.611Z,97.44
2019-03-04T13:29:16.209Z,96.28
2019-03-04T13:31:46.832Z,95.96
2019-03-04T13:34:17.418Z,97.38
2019-03-04T13:36:48.005Z,97.08
2019-03-04T13:39:18.575Z,97.75
2019-03-04T13:41:49.172Z,96.66
2019-03-04T13:44:19.726Z,96.54
2019-03-04T13:46:50.278Z,96.85
2019-03-04T13:49:20.829Z,96.66
2019-03-04T13:51:52.895Z,96.01
2019-03-04T13:54:23.380Z,95.46
2019-03-04T13:56:53.973Z,96.76
2019-03-04T13:59:24.510Z,97.01
2019-03-04T14:01:55.145Z,95.95
2019-03-04T14:04:25.676Z,96.69
2019-03-04T14:06:56.277Z,97.62
2019-03-04T14:09:26.857Z,97.87
2019-03-04T14:11:59.855Z,98.04
2019-03-04T14:14:30.535Z,97.48
2019-03-04T14:17:01.390Z,97.10
2019-03-04T14:19:31.954Z,97.41
2019-03-04T14:22:02.560Z,96.77
2019-03-04T14:24:33.088Z,97.21
2019-03-04T14:27:03.670Z,96.96
2019-03-04T14:29:34.271Z,96.48
2019-03-04T14:32:07.063Z,93.84
2019-03-04T14:34:37.199Z,92.67
2019-03-04T14:37:07.791Z,93.14
2019-03-04T14:39:38.404Z,93.10
2019-03-04T14:42:09.000Z,92.46
2019-03-04T14:44:39.536Z,94.14
2019-03-04T14:47:10.109Z,94.69
2019-03-04T14:49:44.839Z,95.23
2019-03-04T14:52:12.930Z,98.21
2019-03-04T14:54:43.541Z,99.34
2019-03-04T14:57:14.305Z,98.77
2019-03-04T14:59:44.826Z,96.79
2019-03-04T15:02:17.278Z,96.04
2019-03-04T15:04:47.844Z,96.05
2019-03-04T15:07:18.402Z,95.72
2019-03-04T15:09:50.123Z,95.64
2019-03-04T15:12:20.705Z,95.91
2019-03-04T15:14:51.294Z,96.64
2019-03-04T15:17:28.875Z,92.80
2019-03-04T15:20:08.946Z,93.07
2019-03-04T15:22:34.763Z,93.49
2019-03-04T15:25:04.430Z,94.57
2019-03-04T15:27:35.040Z,93.22
2019-03-04T15:30:06.473Z,91.99
2019-03-04T15:32:37.063Z,91.45
2019-03-04T15:35:08.003Z,90.86
2019-03-04T15:37:38.618Z,91.40
2019-03-04T15:40:09.494Z,89.73
2019-03-04T15:42:40.081Z,89.03
2019-03-04T15:45:11.441Z,89.10
2019-03-04T15:47:42.095Z,89.21
2019-03-04T15:50:12.748Z,90.11
2019-03-04T15:52:45.214Z,90.16
2019-03-04T15:55:15.733Z,91.76
2019-03-04T15:57:48.690Z,91.72
2019-03-04T16:00:19.035Z,89.61
2019-03-04T16:02:49.812Z,90.36
2019-03-04T16:05:20.403Z,90.71
2019-03-04T16:07:51.059Z,89.92
2019-03-04T16:10:22.673Z,90.18
2019-03-04T16:12:53.363Z,88.98
2019-03-04T16:15:25.511Z,89.09
2019-03-04T16:17:56.726Z,89.42
2019-03-04T16:20:27.272Z,89.13
2019-03-04T16:23:01.231Z,90.70
2019-03-04T16:25:32.197Z,88.35
2019-03-04T16:28:16.162Z,88.44
2019-03-04T16:30:49.995Z,88.85
2019-03-04T16:33:24.818Z,89.51
2019-03-04T16:35:57.655Z,90.73
2019-03-04T16:38:28.172Z,89.83
2019-03-04T16:41:00.833Z,89.98
2019-03-04T16:43:31.473Z,89.84
2019-03-04T16:46:02.038Z,91.49
2019-03-04T16:48:32.626Z,91.82
2019-03-04T16:51:03.172Z,91.20
2019-03-04T16:53:33.833Z,91.85
2019-03-04T16:56:04.460Z,92.19
2019-03-04T16:58:35.026Z,91.67
2019-03-04T17:01:06.180Z,91.30
2019-03-04T17:03:36.776Z,92.03
2019-03-04T17:06:07.433Z,91.87
2019-03-04T17:08:37.989Z,92.98
2019-03-04T17:11:08.542Z,92.77
2019-03-04T17:13:39.133Z,93.15
2019-03-04T17:16:09.666Z,93.27
2019-03-04T17:18:40.224Z,92.13
2019-03-04T17:21:10.806Z,92.27
2019-03-04T17:23:41.368Z,93.07
2019-03-04T17:26:17.356Z,93.60
2019-03-04T17:28:49.302Z,93.27
2019-03-04T17:31:19.926Z,93.71
2019-03-04T17:33:50.540Z,93.23
2019-03-04T17:36:21.112Z,93.73
2019-03-04T17:38:53.003Z,93.90
2019-03-04T17:41:26.791Z,94.91
2019-03-04T17:43:57.396Z,95.15
2019-03-04T17:46:27.947Z,94.46
2019-03-04T17:48:58.524Z,94.01
2019-03-04T17:51:29.036Z,94.06
2019-03-04T17:53:59.695Z,94.68
2019-03-04T17:56:32.410Z,94.72
2019-03-04T17:59:02.953Z,95.15
2019-03-04T18:01:33.535Z,95.81
2019-03-04T18:04:04.162Z,96.19
2019-03-04T18:06:36.450Z,96.11
2019-03-04T18:09:08.773Z,95.93
2019-03-04T18:11:39.465Z,96.26
2019-03-04T18:14:10.533Z,96.51
2019-03-04T18:16:41.155Z,96.54
2019-03-04T18:19:12.180Z,96.74
2019-03-04T18:21:42.757Z,96.72
2019-03-04T18:24:13.318Z,96.65
2019-03-04T18:27:05.271Z,96.80
2019-03-04T18:30:24.594Z,96.98
2019-03-04T18:33:57.223Z,96.95
2019-03-04T18:37:20.595Z,97.48
2019-03-04T18:41:18.368Z,96.85
2019-03-04T18:44:29.667Z,97.42
2019-03-04T18:47:53.932Z,97.59
2019-03-04T18:50:24.622Z,98.02
2019-03-04T18:52:55.212Z,97.94
2019-03-04T18:55:25.817Z,97.47
2019-03-04T18:57:56.419Z,98.16
2019-03-04T19:00:27.818Z,98.33
2019-03-04T19:02:58.417Z,98.51
2019-03-04T19:05:28.965Z,98.57
2019-03-04T19:07:59.560Z,98.63
2019-03-04T19:10:33.293Z,98.73
2019-03-04T19:13:04.827Z,98.80
2019-03-04T19:15:35.467Z,98.42
2019-03-04T19:18:06.057Z,98.83
2019-03-04T19:20:36.649Z,98.43
2019-03-04T19:23:07.294Z,98.26
2019-03-04T19:25:37.892Z,98.06
2019-03-04T19:28:11.434Z,98.39
2019-03-04T19:30:46.473Z,98.47
2019-03-04T19:33:19.055Z,98.36
2019-03-04T19:35:49.779Z,98.17
2019-03-04T19:38:20.340Z,98.77
2019-03-04T19:40:53.781Z,98.76
2019-03-04T19:43:32.842Z,98.52
2019-03-04T19:46:00.145Z,98.73
2019-03-04T19:48:33.490Z,98.91
2019-03-04T19:51:13.899Z,99.24
2019-03-04T19:53:46.990Z,99.41
2019-03-04T19:56:17.583Z,98.74
2019-03-04T19:58:50.879Z,98.86
2019-03-04T20:01:25.774Z,99.07
2019-03-04T20:03:58.470Z,99.52
2019-03-04T20:06:29.261Z,99.37
2019-03-04T20:09:03.415Z,99.16
2019-03-04T20:11:37.550Z,99.24
2019-03-04T20:14:09.771Z,99.41
2019-03-04T20:16:40.406Z,99.75
2019-03-04T20:19:11.042Z,100.00
2019-03-04T20:21:44.933Z,100.00
2019-03-04T20:24:23.647Z,100.00
2019-03-04T20:26:55.401Z,100.00
2019-03-04T20:29:26.047Z,100.00
2019-03-04T20:31:59.546Z,100.00
2019-03-04T20:34:32.595Z,100.00
2019-03-04T20:37:04.226Z,100.00
2019-03-04T20:39:37.240Z,100.00
2019-03-04T20:42:07.863Z,100.00
2019-03-04T20:44:38.514Z,100.00
2019-03-04T20:47:11.763Z,100.00
2019-03-04T20:49:42.316Z,100.00
2019-03-04T20:52:16.101Z,100.00
2019-03-04T20:54:46.746Z,100.00
2019-03-04T20:57:17.380Z,100.00
2019-03-04T20:59:47.955Z,100.00
2019-03-04T21:02:26.764Z,100.00
2019-03-04T21:04:59.151Z,100.00
2019-03-04T21:07:29.726Z,100.00
2019-03-04T21:10:04.246Z,100.00
2019-03-04T21:12:36.054Z,100.00
2019-03-04T21:15:07.786Z,100.00
2019-03-04T21:17:38.651Z,100.00
2019-03-04T21:20:10.006Z,100.00
2019-03-04T21:22:40.750Z,100.00
2019-03-04T21:25:44.209Z,99.86
2019-03-04T21:28:26.874Z,100.00
2019-03-04T21:31:41.293Z,100.00
2019-03-04T21:35:11.117Z,100.00
2019-03-04T21:37:45.626Z,99.53
2019-03-04T21:40:42.351Z,99.82
2019-03-04T21:43:23.692Z,99.94
2019-03-04T21:46:35.286Z,99.80
2019-03-04T21:49:13.065Z,99.95
2019-03-04T21:52:50.998Z,100.00
2019-03-04T21:55:46.011Z,100.00
2019-03-04T21:58:16.603Z,100.00
2019-03-04T22:00:55.950Z,100.00
2019-03-04T22:03:31.201Z,100.00
2019-03-04T22:06:01.773Z,100.00
2019-03-04T22:08:33.850Z,100.00
2019-03-04T22:11:04.947Z,100.00
2019-03-04T22:13:35.518Z,100.00
2019-03-04T22:16:06.122Z,100.00
2019-03-04T22:18:36.756Z,100.00
2019-03-04T22:21:16.289Z,100.00
2019-03-04T22:23:39.695Z,100.00
2019-03-04T22:26:10.258Z,100.00
2019-03-04T22:28:43.799Z,100.00
2019-03-04T22:31:14.678Z,100.00
2019-03-04T22:33:45.276Z,100.00
2019-03-04T22:36:15.848Z,99.55
2019-03-04T22:38:46.411Z,99.29
2019-03-04T22:41:16.999Z,98.18
2019-03-04T22:43:47.603Z,98.05
2019-03-04T22:46:18.126Z,97.97
2019-03-04T22:48:48.711Z,97.84
2019-03-04T22:51:19.311Z,97.53
2019-03-04T22:53:49.905Z,97.06
2019-03-04T22:56:20.488Z,96.55
2019-03-04T22:58:51.033Z,96.90
2019-03-04T23:01:41.541Z,96.35
2019-03-04T23:05:21.206Z,97.38
2019-03-04T23:07:56.734Z,97.54
2019-03-04T23:10:42.927Z,98.61
2019-03-04T23:13:37.442Z,96.93
2019-03-04T23:16:09.524Z,96.51
2019-03-04T23:18:40.128Z,96.44
2019-03-04T23:21:13.477Z,96.63
2019-03-04T23:23:44.015Z,96.99
2019-03-04T23:26:14.639Z,97.09
2019-03-04T23:28:45.182Z,96.24
2019-03-04T23:31:15.834Z,95.80
2019-03-04T23:33:46.424Z,95.83
2019-03-04T23:36:17.022Z,96.07
2019-03-04T23:38:47.552Z,96.06
2019-03-04T23:41:18.084Z,95.87
2019-03-04T23:43:48.657Z,96.43
2019-03-04T23:46:19.226Z,96.68
2019-03-04T23:48:49.822Z,96.76
2019-03-04T23:51:23.207Z,96.95
2019-03-04T23:53:53.804Z,96.86
2019-03-04T23:56:24.324Z,97.08
2019-03-04T23:58:54.911Z,97.00
